Time;durP1;ratioP1;P1;durP2;ratioP2;P2;SDS_P1;SDS_P2;PMS_P1;PMS_P2;Temp;Humidity;BMP_temperature;BMP_pressure;BME280_temperature;BME280_humidity;BME280_pressure;Samples;Min_cycle;Max_cycle;Signal;HPM_P1;HPM_P2
2022/07/10 00:01:20;;;;;;;;;2.25;2.00;;;;;21.40;43.08;102084.38;5092656;28;45315;-82
2022/07/10 00:03:45;;;;;;;;;3.00;3.00;;;;;21.51;43.36;102117.50;5094636;28;45275;-82
2022/07/10 00:06:10;;;;;;;;;2.00;1.75;;;;;21.55;43.26;102125.56;5094613;27;45147;-83
2022/07/10 00:08:36;;;;;;;;;3.00;3.00;;;;;21.22;43.62;102069.88;5094122;28;45490;-82
2022/07/10 00:11:02;;;;;;;;;2.00;2.00;;;;;21.51;43.65;102128.19;5094027;28;44938;-82
2022/07/10 00:13:27;;;;;;;;;2.75;2.25;;;;;21.35;43.83;102103.06;5091483;28;44929;-83
2022/07/10 00:15:52;;;;;;;;;2.75;2.00;;;;;21.38;43.99;102125.38;5089744;28;45444;-83
2022/07/10 00:18:18;;;;;;;;;2.00;2.00;;;;;21.37;43.79;102123.56;5092484;27;45073;-82
2022/07/10 00:20:43;;;;;;;;;3.00;2.00;;;;;21.31;44.03;102117.25;5093196;27;45121;-83
2022/07/10 00:23:08;;;;;;;;;3.75;3.75;;;;;21.22;43.84;102106.41;5076084;28;45169;-82
2022/07/10 00:25:34;;;;;;;;;2.75;2.75;;;;;21.20;43.92;102109.06;5073322;28;45024;-83
2022/07/10 00:27:59;;;;;;;;;2.50;2.00;;;;;21.05;44.15;102093.72;5072348;28;46096;-84
2022/07/10 00:30:25;;;;;;;;;2.25;2.00;;;;;21.24;44.46;102131.41;5091053;27;45162;-84
2022/07/10 00:32:50;;;;;;;;;3.00;3.00;;;;;21.06;44.47;102103.53;5089977;28;45075;-82
2022/07/10 00:35:15;;;;;;;;;3.75;3.00;;;;;21.15;44.22;102129.50;5094097;28;45072;-83
2022/07/10 00:37:41;;;;;;;;;3.00;2.75;;;;;21.05;44.59;102112.44;5093083;28;45333;-83
2022/07/10 00:40:06;;;;;;;;;3.25;3.25;;;;;21.04;44.62;102110.66;5086118;27;45248;-82
2022/07/10 00:42:32;;;;;;;;;3.00;3.00;;;;;21.03;44.62;102106.19;5089900;28;44847;-84
2022/07/10 00:44:57;;;;;;;;;3.00;3.00;;;;;20.99;45.17;102100.78;5090584;27;45422;-82
2022/07/10 00:47:23;;;;;;;;;4.50;2.25;;;;;20.97;45.13;102103.41;5073236;28;46021;-84
2022/07/10 00:49:48;;;;;;;;;3.00;3.00;;;;;20.86;45.06;102089.91;5072579;28;45151;-81
2022/07/10 00:52:16;;;;;;;;;3.00;3.00;;;;;20.81;45.28;102080.03;5093356;28;44972;-84
2022/07/10 00:54:50;;;;;;;;;3.00;3.00;;;;;20.99;45.60;102112.38;5090346;28;45296;-83
2022/07/10 00:57:16;;;;;;;;;2.00;2.00;;;;;20.95;45.28;102115.88;5073797;28;46700;-83
2022/07/10 00:59:45;;;;;;;;;2.50;2.50;;;;;20.82;45.38;102101.44;5091118;27;45544;-82
2022/07/10 01:02:13;;;;;;;;;2.00;2.00;;;;;20.94;45.66;102124.78;5090746;27;45269;-82
2022/07/10 01:04:38;;;;;;;;;3.00;2.00;;;;;20.61;45.33;102075.31;5090488;28;45149;-81
2022/07/10 01:07:04;;;;;;;;;2.50;2.50;;;;;20.52;45.92;102058.25;5093195;28;45424;-83
2022/07/10 01:09:29;;;;;;;;;2.00;2.00;;;;;20.61;45.89;102080.66;5093733;28;44938;-84
2022/07/10 01:11:59;;;;;;;;;2.50;2.50;;;;;20.71;46.16;102107.50;5093582;28;45095;-83
2022/07/10 01:14:25;;;;;;;;;4.00;3.00;;;;;20.73;46.11;102109.31;5092813;27;44851;-81
2022/07/10 01:16:53;;;;;;;;;3.00;3.00;;;;;20.64;46.55;102094.91;5090696;28;45162;-81
2022/07/10 01:19:18;;;;;;;;;4.25;4.00;;;;;20.56;46.81;102087.69;5092052;27;45145;-82
2022/07/10 01:21:43;;;;;;;;;5.00;4.00;;;;;20.60;46.87;102099.34;5074758;28;45114;-85
2022/07/10 01:24:10;;;;;;;;;2.50;2.50;;;;;20.55;46.79;102101.94;5090199;28;45309;-83
2022/07/10 01:26:37;;;;;;;;;3.00;3.00;;;;;20.64;46.68;102119.88;5092270;28;45767;-83
2022/07/10 01:29:05;;;;;;;;;3.50;3.50;;;;;20.60;46.70;102112.69;5068330;28;45539;-81
2022/07/10 01:31:31;;;;;;;;;4.00;3.00;;;;;20.51;47.12;102100.09;5090537;28;44988;-83
2022/07/10 01:33:57;;;;;;;;;2.00;2.00;;;;;20.54;47.23;102104.56;5093260;28;45201;-82
2022/07/10 01:36:22;;;;;;;;;3.50;3.00;;;;;20.50;47.27;102103.63;5091871;28;45193;-84
2022/07/10 01:38:51;;;;;;;;;4.50;4.50;;;;;20.49;46.79;102100.94;5092980;28;45088;-82
2022/07/10 01:41:16;;;;;;;;;3.75;3.75;;;;;20.43;47.35;102099.03;5092376;28;45209;-81
2022/07/10 01:43:44;;;;;;;;;4.25;3.25;;;;;20.33;47.71;102086.41;5089698;28;45025;-84
2022/07/10 01:46:11;;;;;;;;;3.75;3.50;;;;;20.40;47.59;102100.78;5091685;28;45496;-82
2022/07/10 01:48:37;;;;;;;;;4.00;3.00;;;;;20.35;47.35;102100.69;5073228;28;45819;-82
2022/07/10 01:51:03;;;;;;;;;3.25;3.25;;;;;20.20;47.62;102093.34;5092705;28;45040;-83
2022/07/10 01:53:29;;;;;;;;;2.75;2.25;;;;;20.31;47.41;102112.19;5092865;27;45225;-84
2022/07/10 01:55:54;;;;;;;;;4.00;4.00;;;;;20.07;47.59;102085.97;5089181;28;47293;-83
2022/07/10 01:58:20;;;;;;;;;3.75;3.75;;;;;20.05;48.00;102085.97;5070219;28;45124;-82
2022/07/10 02:00:45;;;;;;;;;3.00;3.00;;;;;20.04;48.05;102091.25;5091766;28;45197;-81
2022/07/10 02:05:54;;;;;;;;;3.00;3.00;;;;;19.90;48.03;102068.75;5091271;27;45596;-82
2022/07/10 02:08:19;;;;;;;;;3.00;2.75;;;;;19.97;48.08;102095.59;5091906;28;45052;-81
2022/07/10 02:10:45;;;;;;;;;3.25;3.25;;;;;20.01;48.01;102101.91;5090534;28;44909;-82
2022/07/10 02:13:11;;;;;;;;;2.25;2.25;;;;;19.70;48.03;102063.06;5073939;28;45146;-83
2022/07/10 02:15:36;;;;;;;;;3.50;3.00;;;;;19.90;48.06;102098.13;5071402;28;47384;-84
2022/07/10 02:18:02;;;;;;;;;3.50;3.00;;;;;19.88;48.59;102105.22;5089071;28;45016;-81
2022/07/10 02:20:27;;;;;;;;;2.00;2.00;;;;;19.90;48.35;102107.06;5073797;28;44999;-82
2022/07/10 02:22:53;;;;;;;;;2.75;2.25;;;;;19.77;48.25;102094.34;5089987;28;45458;-83
2022/07/10 02:25:18;;;;;;;;;3.00;3.00;;;;;19.88;48.53;102113.22;5092369;28;45652;-82
2022/07/10 02:27:43;;;;;;;;;3.00;2.00;;;;;19.66;48.26;102077.25;5073244;28;47853;-82
2022/07/10 02:30:09;;;;;;;;;3.00;3.00;;;;;19.63;48.13;102069.19;5073961;28;45146;-85
2022/07/10 02:32:34;;;;;;;;;3.00;2.50;;;;;19.59;48.09;102068.19;5091624;28;45475;-81
2022/07/10 02:34:59;;;;;;;;;2.50;2.50;;;;;19.69;48.12;102098.63;5092313;28;45664;-82
2022/07/10 02:37:25;;;;;;;;;2.75;2.50;;;;;19.67;48.28;102095.94;5090969;28;46001;-83
2022/07/10 02:39:50;;;;;;;;;3.00;3.00;;;;;19.69;48.56;102087.97;5072434;28;45362;-81
2022/07/10 02:42:15;;;;;;;;;3.00;3.00;;;;;19.50;48.25;102068.91;5091012;28;45343;-81
2022/07/10 02:44:41;;;;;;;;;3.25;3.25;;;;;19.68;48.65;102096.84;5071624;28;46962;-84
2022/07/10 02:47:06;;;;;;;;;3.00;3.00;;;;;19.69;48.06;102098.63;5091077;28;48018;-81
2022/07/10 02:49:33;;;;;;;;;3.25;3.00;;;;;19.60;48.32;102080.69;5091192;28;45040;-82
2022/07/10 02:51:58;;;;;;;;;5.00;3.00;;;;;19.48;48.44;102061.75;5091938;28;45312;-83
2022/07/10 02:54:24;;;;;;;;;3.50;3.00;;;;;19.58;48.30;102080.63;5090682;28;45900;-80
2022/07/10 02:56:49;;;;;;;;;4.00;4.00;;;;;19.62;48.63;102084.28;5089637;28;45362;-81
2022/07/10 02:59:16;;;;;;;;;4.75;4.25;;;;;19.42;48.81;102048.31;5090992;27;44953;-81
2022/07/10 03:01:42;;;;;;;;;3.00;2.50;;;;;19.38;48.60;102046.47;5069740;28;45298;-82
2022/07/10 03:04:07;;;;;;;;;3.25;3.25;;;;;19.41;49.38;102049.16;5090114;28;45955;-81
2022/07/10 03:06:32;;;;;;;;;3.00;2.50;;;;;19.39;48.96;102057.13;5091309;28;45068;-83
2022/07/10 03:08:58;;;;;;;;;3.50;2.50;;;;;19.39;49.18;102059.81;5089454;28;45201;-82
2022/07/10 03:11:23;;;;;;;;;4.50;3.75;;;;;19.35;49.71;102060.59;5091497;28;44987;-81
2022/07/10 03:13:48;;;;;;;;;5.50;5.00;;;;;19.41;49.84;102074.09;5070633;28;45465;-82
2022/07/10 03:16:14;;;;;;;;;3.00;3.00;;;;;19.28;49.57;102054.28;5089019;27;45150;-81
2022/07/10 03:18:39;;;;;;;;;4.25;4.00;;;;;19.18;49.25;102046.06;5087622;27;45186;-82
2022/07/10 03:21:04;;;;;;;;;4.25;4.00;;;;;19.31;49.89;102075.66;5087355;28;45114;-81
2022/07/10 03:23:30;;;;;;;;;3.50;3.00;;;;;19.37;49.67;102084.66;5089694;28;45561;-82
2022/07/10 03:25:55;;;;;;;;;5.00;4.25;;;;;19.24;49.92;102062.19;5091212;28;44910;-83
2022/07/10 03:28:21;;;;;;;;;3.00;3.00;;;;;19.29;49.69;102076.50;5074812;28;45147;-82
2022/07/10 03:30:46;;;;;;;;;4.75;4.00;;;;;19.30;49.77;102079.19;5076127;28;45067;-82
2022/07/10 03:33:12;;;;;;;;;4.00;4.00;;;;;19.20;49.74;102076.31;5094452;27;45721;-83
2022/07/10 03:35:37;;;;;;;;;4.00;4.00;;;;;19.16;50.16;102070.03;5091895;28;45267;-83
2022/07/10 03:38:02;;;;;;;;;3.00;3.00;;;;;19.11;50.15;102062.78;5092434;27;44997;-82
2022/07/10 03:40:27;;;;;;;;;3.75;3.00;;;;;18.95;50.23;102038.47;5092967;28;45456;-82
2022/07/10 03:42:53;;;;;;;;;3.75;3.75;;;;;19.25;50.47;102090.63;5094389;28;45851;-81
2022/07/10 03:45:18;;;;;;;;;4.00;4.00;;;;;19.08;50.42;102066.28;5092982;28;45036;-82
2022/07/10 03:47:44;;;;;;;;;3.00;3.00;;;;;19.20;50.60;102093.19;5074839;28;45037;-81
2022/07/10 03:50:09;;;;;;;;;4.00;3.50;;;;;19.10;50.25;102074.31;5075972;28;45228;-84
2022/07/10 03:52:34;;;;;;;;;3.00;2.00;;;;;19.03;50.30;102066.19;5094172;28;46000;-84
2022/07/10 03:55:00;;;;;;;;;3.00;3.00;;;;;18.95;50.55;102051.81;5094711;28;45021;-81
2022/07/10 04:00:09;;;;;;;;;4.00;3.25;;;;;18.98;50.28;102054.53;5091576;27;45320;-83
2022/07/10 04:02:35;;;;;;;;;3.00;3.00;;;;;19.01;50.62;102064.34;5072709;28;47279;-83
2022/07/10 04:05:00;;;;;;;;;3.00;3.00;;;;;18.91;50.87;102047.28;5091883;28;50948;-82
2022/07/10 04:07:25;;;;;;;;;3.25;3.00;;;;;19.02;50.77;102068.84;5094543;28;45369;-81
2022/07/10 04:09:51;;;;;;;;;4.50;4.00;;;;;18.75;50.83;102026.50;5094477;28;45111;-81
2022/07/10 04:12:16;;;;;;;;;2.50;2.50;;;;;18.85;50.88;102047.16;5091905;28;51211;-82
2022/07/10 04:14:41;;;;;;;;;3.75;3.00;;;;;18.96;51.26;102072.25;5073998;28;45144;-81
2022/07/10 04:17:07;;;;;;;;;4.00;3.75;;;;;18.99;51.25;102082.09;5092337;28;45497;-81
2022/07/10 04:19:32;;;;;;;;;3.50;3.25;;;;;18.89;51.50;102072.09;5086938;28;45276;-81
2022/07/10 04:21:57;;;;;;;;;3.75;3.50;;;;;18.95;50.86;102080.22;5094085;28;45640;-81
2022/07/10 04:24:23;;;;;;;;;3.25;3.25;;;;;18.90;50.90;102074.78;5092986;27;45017;-82
2022/07/10 04:26:48;;;;;;;;;4.00;4.00;;;;;18.85;51.36;102075.56;5090175;27;45299;-81
2022/07/10 04:29:13;;;;;;;;;3.00;2.50;;;;;18.89;51.33;102082.75;5070978;28;45322;-82
2022/07/10 04:31:39;;;;;;;;;4.00;3.00;;;;;18.90;51.53;102085.44;5090518;28;45728;-83
2022/07/10 04:34:04;;;;;;;;;4.00;3.75;;;;;18.85;51.64;102078.22;5093976;27;44942;-81
2022/07/10 04:36:30;;;;;;;;;4.00;4.00;;;;;18.78;51.71;102074.53;5092739;28;45632;-82
2022/07/10 04:38:55;;;;;;;;;4.00;4.00;;;;;18.62;51.24;102041.31;5087107;27;45384;-82
2022/07/10 04:41:21;;;;;;;;;3.50;3.50;;;;;18.78;51.85;102064.78;5090832;27;45280;-84
2022/07/10 04:43:46;;;;;;;;;4.00;3.50;;;;;18.79;51.78;102093.19;5093216;28;44955;-82
2022/07/10 04:46:11;;;;;;;;;4.00;4.00;;;;;18.79;51.47;102084.31;5092723;28;44996;-81
2022/07/10 04:48:37;;;;;;;;;3.00;3.00;;;;;18.70;51.88;102068.13;5091513;27;45130;-82
2022/07/10 04:51:02;;;;;;;;;4.33;4.00;;;;;18.78;51.91;102087.84;5091636;28;55555;-82
2022/07/10 04:53:27;;;;;;;;;3.25;3.25;;;;;18.88;51.40;102105.84;5070319;28;45348;-82
2022/07/10 04:55:53;;;;;;;;;3.00;3.00;;;;;18.71;51.95;102078.81;5090840;28;45150;-81
2022/07/10 04:58:18;;;;;;;;;4.75;4.75;;;;;18.74;52.05;102080.66;5089011;28;45273;-82
2022/07/10 05:00:43;;;;;;;;;3.00;3.00;;;;;18.69;51.76;102074.31;5074570;28;46231;-81
2022/07/10 05:03:09;;;;;;;;;4.00;3.25;;;;;18.59;52.05;102056.31;5092619;28;45021;-81
2022/07/10 05:05:34;;;;;;;;;2.25;2.00;;;;;18.58;51.89;102059.84;5092433;28;45220;-81
2022/07/10 05:08:00;;;;;;;;;3.50;3.25;;;;;18.69;51.80;102079.66;5092752;28;45691;-81
2022/07/10 05:10:27;;;;;;;;;5.75;4.75;;;;;18.72;52.12;102085.97;5092814;28;45384;-81
2022/07/10 05:12:52;;;;;;;;;5.00;3.75;;;;;18.85;52.49;102102.19;5093441;28;45232;-81
2022/07/10 05:15:17;;;;;;;;;4.50;4.00;;;;;18.75;51.91;102079.78;5073296;28;45192;-82
2022/07/10 05:17:43;;;;;;;;;5.00;4.75;;;;;18.78;52.13;102087.84;5071209;28;45019;-83
2022/07/10 05:20:09;;;;;;;;;6.00;4.00;;;;;18.86;52.36;102085.34;5091592;28;45335;-81
2022/07/10 05:22:35;;;;;;;;;4.25;4.00;;;;;18.75;52.04;102061.13;5091446;28;45351;-81
2022/07/10 05:25:00;;;;;;;;;4.25;3.25;;;;;18.87;52.26;102087.16;5087457;27;44914;-81
2022/07/10 05:27:26;;;;;;;;;4.00;3.50;;;;;18.80;52.34;102067.47;5091204;27;45191;-82
2022/07/10 05:29:52;;;;;;;;;5.75;4.00;;;;;18.86;51.95;102075.59;5090715;28;45905;-81
2022/07/10 05:32:17;;;;;;;;;4.00;3.00;;;;;18.94;51.71;102078.44;5091635;27;44973;-81
2022/07/10 05:34:42;;;;;;;;;3.75;3.75;;;;;18.72;52.15;102054.00;5089649;28;45085;-81
2022/07/10 05:37:08;;;;;;;;;4.50;4.00;;;;;18.96;51.89;102093.56;5088347;28;45332;-81
2022/07/10 05:39:33;;;;;;;;;3.00;3.00;;;;;18.89;52.10;102075.66;5090382;27;45665;-81
2022/07/10 05:41:58;;;;;;;;;2.50;2.50;;;;;18.83;52.32;102067.53;5089473;28;45179;-81
2022/07/10 05:44:24;;;;;;;;;4.25;4.00;;;;;18.94;52.01;102081.09;5090869;28;45003;-81
2022/07/10 05:46:49;;;;;;;;;3.25;3.25;;;;;18.87;52.25;102072.06;5092075;28;45434;-81
2022/07/10 05:49:15;;;;;;;;;3.00;3.00;;;;;19.00;52.42;102095.44;5086956;27;46502;-81
2022/07/10 05:51:40;;;;;;;;;3.25;3.00;;;;;18.91;52.25;102078.34;5089115;28;45052;-81
2022/07/10 05:54:06;;;;;;;;;5.75;5.50;;;;;18.80;52.29;102059.47;5088406;27;45102;-81
2022/07/10 05:56:31;;;;;;;;;4.75;4.75;;;;;19.16;52.36;102115.34;5070229;28;45081;-81
2022/07/10 05:58:57;;;;;;;;;4.00;4.00;;;;;18.98;52.17;102082.97;5089424;28;45339;-81
2022/07/10 06:01:23;;;;;;;;;3.50;3.50;;;;;19.10;52.05;102104.53;5090834;28;44978;-81
2022/07/10 06:03:48;;;;;;;;;3.75;3.75;;;;;19.12;52.12;102104.59;5085779;27;45292;-81
2022/07/10 06:06:15;;;;;;;;;3.25;3.25;;;;;19.12;51.90;102105.47;5091361;27;44839;-82
2022/07/10 06:08:44;;;;;;;;;4.00;4.00;;;;;19.29;52.30;102114.72;5069843;28;47641;-80
2022/07/10 06:11:10;;;;;;;;;4.75;4.75;;;;;19.25;52.01;102098.63;5070129;28;45701;-81
2022/07/10 06:13:36;;;;;;;;;4.25;4.25;;;;;19.18;51.79;102078.06;5088226;28;45134;-81
2022/07/10 06:16:01;;;;;;;;;4.25;4.00;;;;;19.15;51.91;102078.88;5084917;28;45363;-81
2022/07/10 06:18:26;;;;;;;;;5.00;5.00;;;;;19.26;51.97;102088.00;5072736;28;47924;-85
2022/07/10 06:20:52;;;;;;;;;3.75;3.75;;;;;19.27;52.14;102080.91;5092103;28;45248;-81
2022/07/10 06:23:17;;;;;;;;;6.33;5.00;;;;;19.31;51.36;102080.09;5089098;28;47483;-81
2022/07/10 06:25:42;;;;;;;;;4.00;2.00;;;;;19.19;51.38;102064.75;5066513;28;45990;-81
2022/07/10 06:28:08;;;;;;;;;4.25;4.00;;;;;19.34;51.08;102081.03;5086438;28;45504;-82
2022/07/10 06:30:33;;;;;;;;;3.75;3.00;;;;;19.54;51.55;102109.88;5090915;28;44969;-82
2022/07/10 06:32:58;;;;;;;;;3.00;2.75;;;;;19.50;51.39;102087.56;5089979;28;45168;-81
2022/07/10 06:35:24;;;;;;;;;3.00;3.00;;;;;19.55;50.87;102091.22;5072868;28;45252;-82
2022/07/10 06:37:49;;;;;;;;;2.50;2.00;;;;;19.61;50.89;102095.84;5087277;28;47874;-83
2022/07/10 06:40:15;;;;;;;;;3.00;3.00;;;;;19.38;51.33;102051.78;5090258;28;45184;-82
2022/07/10 06:42:40;;;;;;;;;4.00;3.00;;;;;19.58;51.91;102077.06;5070676;28;45450;-81
2022/07/10 06:45:06;;;;;;;;;3.75;3.75;;;;;19.64;51.45;102070.97;5088695;28;45193;-84
2022/07/10 06:50:17;;;;;;;;;4.75;4.75;;;;;19.83;51.09;102090.00;5084000;28;45322;-83
2022/07/10 06:52:43;;;;;;;;;4.50;4.00;;;;;19.86;51.24;102086.50;5085311;28;45124;-83
2022/07/10 06:55:09;;;;;;;;;3.25;3.00;;;;;19.81;50.89;102062.41;5086754;28;45376;-83
2022/07/10 06:57:35;;;;;;;;;3.75;3.75;;;;;19.98;50.52;102088.50;5085113;28;45516;-82
2022/07/10 07:00:00;;;;;;;;;3.25;3.25;;;;;19.95;50.44;102080.41;5087206;27;45475;-82
2022/07/10 07:02:26;;;;;;;;;3.00;3.00;;;;;19.83;50.12;102054.44;5080123;28;46169;-82
2022/07/10 07:04:51;;;;;;;;;3.25;3.00;;;;;19.77;49.77;102035.66;5087304;28;45294;-82
2022/07/10 07:07:16;;;;;;;;;4.25;3.50;;;;;20.13;49.34;102107.44;5087768;28;46666;-82
2022/07/10 07:09:43;;;;;;;;;4.00;4.00;;;;;20.05;49.99;102077.97;5068770;28;45014;-84
2022/07/10 07:12:08;;;;;;;;;4.00;3.00;;;;;20.17;49.57;102092.38;5088213;28;45254;-83
2022/07/10 07:14:34;;;;;;;;;3.00;3.00;;;;;20.04;49.51;102067.25;5088205;28;45149;-82
2022/07/10 07:17:06;;;;;;;;;4.50;3.00;;;;;20.12;49.34;102070.03;5086681;28;45347;-84
2022/07/10 07:25:09;;;;;;;;;2.25;2.25;;;;;20.09;48.44;102053.09;5086398;28;45610;-82
2022/07/10 07:27:37;;;;;;;;;2.25;2.25;;;;;20.30;48.30;102075.69;5089964;28;45193;-84
2022/07/10 07:30:08;;;;;;;;;3.00;3.00;;;;;20.38;47.97;102083.81;5084501;28;45839;-84
2022/07/10 07:32:33;;;;;;;;;4.00;2.50;;;;;20.49;48.40;102092.91;5090427;28;44994;-82
2022/07/10 07:35:00;;;;;;;;;2.25;2.00;;;;;20.43;48.20;102080.34;5069083;28;45678;-81
2022/07/10 07:37:42;;;;;;;;;2.00;2.00;;;;;20.52;48.21;102093.88;5069645;28;47657;-81
2022/07/10 07:40:10;;;;;;;;;3.00;2.00;;;;;20.51;47.77;102091.19;5070105;28;45727;-82
2022/07/10 07:42:36;;;;;;;;;2.75;2.75;;;;;20.55;47.70;102082.34;5086182;28;45208;-82
2022/07/10 07:45:03;;;;;;;;;3.25;3.00;;;;;20.46;47.00;102059.03;5083631;28;45291;-83
2022/07/10 07:47:29;;;;;;;;;2.00;2.00;;;;;20.61;47.11;102086.00;5086675;28;45795;-82
2022/07/10 07:49:54;;;;;;;;;2.00;2.00;;;;;20.48;46.85;102056.41;5083277;28;45300;-83
2022/07/10 07:52:19;;;;;;;;;2.50;2.00;;;;;20.60;47.28;102076.19;5088383;28;45110;-83
2022/07/10 07:54:45;;;;;;;;;3.25;2.75;;;;;20.47;46.72;102036.81;5081385;28;45482;-81
2022/07/10 07:57:10;;;;;;;;;2.50;2.50;;;;;20.67;46.79;102070.94;5070755;28;47749;-82
2022/07/10 07:59:35;;;;;;;;;3.00;2.50;;;;;20.58;46.78;102055.66;5084631;28;45210;-82
2022/07/10 08:02:01;;;;;;;;;2.00;2.00;;;;;20.73;47.08;102073.69;5086365;28;45682;-83
2022/07/10 08:04:26;;;;;;;;;4.00;2.75;;;;;20.74;47.12;102072.78;5088008;28;45268;-83
2022/07/10 08:06:53;;;;;;;;;2.50;2.50;;;;;20.61;46.15;102045.91;5085037;27;45507;-82
2022/07/10 08:09:19;;;;;;;;;2.25;2.25;;;;;20.65;46.44;102041.53;5085083;28;45497;-83
2022/07/10 08:11:45;;;;;;;;;4.00;4.00;;;;;20.85;46.22;102079.22;5071125;28;45294;-82
2022/07/10 08:14:11;;;;;;;;;4.00;3.75;;;;;20.75;46.36;102053.25;5088690;28;45341;-82
2022/07/10 08:16:36;;;;;;;;;2.25;2.25;;;;;20.75;46.28;102047.91;5082428;28;47032;-81
2022/07/10 08:19:02;;;;;;;;;3.00;3.00;;;;;20.74;46.45;102041.66;5084601;28;46617;-81
2022/07/10 08:21:27;;;;;;;;;2.25;2.25;;;;;20.86;46.28;102052.50;5090193;27;45276;-83
2022/07/10 08:23:53;;;;;;;;;3.00;3.00;;;;;20.84;46.47;102034.66;5070691;28;45135;-82
2022/07/10 08:26:19;;;;;;;;;3.00;3.00;;;;;21.04;45.93;102062.53;5088394;27;46161;-83
2022/07/10 08:28:44;;;;;;;;;2.00;2.00;;;;;20.99;45.72;102045.53;5070672;28;45254;-83
2022/07/10 08:31:09;;;;;;;;;3.25;3.25;;;;;20.86;45.59;102023.09;5090596;28;45182;-81
2022/07/10 08:33:35;;;;;;;;;3.25;2.75;;;;;20.98;45.63;102035.72;5084122;28;45571;-83
2022/07/10 08:36:00;;;;;;;;;2.50;2.50;;;;;21.11;45.35;102050.13;5065357;28;46028;-81
2022/07/10 08:38:26;;;;;;;;;3.50;3.00;;;;;20.97;45.90;102012.53;5087895;28;45201;-82
2022/07/10 08:40:56;;;;;;;;;3.00;3.00;;;;;21.25;45.15;102051.19;5085687;28;45261;-81
2022/07/10 08:43:22;;;;;;;;;3.75;3.00;;;;;21.31;45.73;102051.28;5087419;28;45439;-81
2022/07/10 08:45:50;;;;;;;;;2.75;2.50;;;;;21.20;45.43;102034.19;5087295;28;45530;-81
2022/07/10 08:48:21;;;;;;;;;3.00;2.00;;;;;21.47;45.10;102051.47;5065940;28;45104;-83
2022/07/10 08:50:48;;;;;;;;;2.25;2.00;;;;;21.50;44.99;102059.53;5086687;28;44987;-82
2022/07/10 08:53:20;;;;;;;;;3.00;3.00;;;;;21.34;44.22;102024.59;5087061;28;45230;-82
2022/07/10 08:55:46;;;;;;;;;2.25;2.00;;;;;21.42;44.66;102026.44;5086816;28;46116;-82
2022/07/10 08:58:12;;;;;;;;;2.25;2.25;;;;;21.49;44.47;102031.00;5089827;27;45105;-82
2022/07/10 09:00:38;;;;;;;;;2.25;2.00;;;;;21.51;43.86;102024.75;5087475;28;45062;-82
2022/07/10 09:03:04;;;;;;;;;2.00;2.00;;;;;21.52;44.09;102023.88;5082043;28;44997;-81
2022/07/10 09:05:29;;;;;;;;;3.00;2.00;;;;;21.61;43.98;102028.41;5088437;27;46192;-81
2022/07/10 09:07:55;;;;;;;;;2.00;2.00;;;;;21.71;43.39;102026.72;5088026;27;45300;-81
2022/07/10 09:10:24;;;;;;;;;2.75;2.75;;;;;21.75;43.71;102029.44;5088471;28;45214;-82
2022/07/10 09:12:57;;;;;;;;;3.00;3.00;;;;;21.74;43.32;102016.97;5087924;28;45316;-82
2022/07/10 09:15:29;;;;;;;;;2.25;2.00;;;;;21.68;43.54;101991.94;5066600;28;47181;-81
2022/07/10 09:17:57;;;;;;;;;3.50;3.50;;;;;21.80;43.22;102008.06;5069556;28;45323;-81
2022/07/10 09:20:33;;;;;;;;;3.25;2.00;;;;;21.89;43.32;102018.88;5091821;27;44984;-81
2022/07/10 09:23:20;;;;;;;;;2.75;2.50;;;;;21.89;43.03;102005.50;5088200;27;45139;-81
2022/07/10 09:25:47;;;;;;;;;3.25;3.00;;;;;21.61;43.06;101953.50;5090172;27;45666;-82
2022/07/10 09:28:16;;;;;;;;;3.00;3.00;;;;;22.01;43.27;102010.91;5071504;28;45416;-81
2022/07/10 09:30:42;;;;;;;;;2.50;2.50;;;;;21.99;42.97;102002.00;5086040;28;44977;-82
2022/07/10 09:33:25;;;;;;;;;3.00;2.00;;;;;22.14;42.82;102018.22;5088299;28;45461;-81
2022/07/10 09:36:14;;;;;;;;;2.00;2.00;;;;;22.10;42.44;101994.94;5072433;28;47963;-84
2022/07/10 09:38:42;;;;;;;;;5.00;5.00;;;;;22.23;42.01;102013.81;5073428;28;45108;-83
2022/07/10 09:41:15;;;;;;;;;2.75;2.50;;;;;22.26;42.45;102013.81;5087281;28;45360;-81
2022/07/10 09:43:48;;;;;;;;;1.25;1.25;;;;;22.33;41.85;102021.91;5087492;28;45074;-82
2022/07/10 09:46:14;;;;;;;;;2.00;2.00;;;;;22.42;42.27;102014.84;5068047;28;47144;-82
2022/07/10 09:48:40;;;;;;;;;2.25;2.25;;;;;22.43;41.85;102006.78;5086719;28;45594;-82
2022/07/10 09:51:11;;;;;;;;;2.00;2.00;;;;;22.51;41.57;102015.78;5084549;28;45374;-81
2022/07/10 09:53:43;;;;;;;;;2.25;1.75;;;;;22.43;41.37;101988.03;5090748;27;45280;-84
2022/07/10 09:56:11;;;;;;;;;2.25;2.25;;;;;22.60;41.63;102009.56;5089444;28;45922;-81
2022/07/10 09:58:40;;;;;;;;;2.00;1.50;;;;;22.48;41.61;101988.06;5089694;28;45100;-82
2022/07/10 10:01:07;;;;;;;;;2.25;2.25;;;;;22.56;41.29;101995.28;5084078;28;45462;-82
2022/07/10 10:03:37;;;;;;;;;2.00;2.00;;;;;22.76;40.98;102018.56;5090353;28;45139;-81
2022/07/10 10:06:15;;;;;;;;;2.50;2.50;;;;;22.79;41.07;102008.75;5091055;28;45470;-82
2022/07/10 10:08:50;;;;;;;;;3.25;3.00;;;;;22.83;40.70;102013.25;5091085;28;45167;-82
2022/07/10 10:11:23;;;;;;;;;2.00;2.00;;;;;22.68;41.02;101991.72;5092259;28;44952;-82
2022/07/10 10:13:52;;;;;;;;;2.00;2.00;;;;;22.88;40.56;102002.53;5085829;28;45382;-82
2022/07/10 10:16:19;;;;;;;;;2.25;2.00;;;;;22.89;40.90;101988.28;5090306;27;45811;-81
2022/07/10 10:21:29;;;;;;;;;4.50;4.50;;;;;23.06;39.92;101985.66;5089280;28;45320;-82
2022/07/10 10:23:56;;;;;;;;;3.00;3.00;;;;;23.20;40.27;101996.41;5085255;28;45279;-82
2022/07/10 10:26:22;;;;;;;;;3.75;3.75;;;;;23.09;40.79;101965.09;5085752;28;47370;-81
2022/07/10 10:28:50;;;;;;;;;4.00;3.00;;;;;23.21;40.31;101972.28;5086908;28;45429;-82
2022/07/10 10:31:16;;;;;;;;;4.25;3.25;;;;;23.13;40.27;101956.16;5087798;28;45353;-82
2022/07/10 10:33:45;;;;;;;;;5.25;5.25;;;;;23.42;40.16;101988.41;5089628;28;45158;-83
2022/07/10 10:36:12;;;;;;;;;6.75;6.00;;;;;23.47;40.17;101985.75;5086406;27;45654;-83
2022/07/10 10:38:55;;;;;;;;;5.00;4.00;;;;;23.53;39.66;101985.75;5088747;27;45339;-84
2022/07/10 10:41:48;;;;;;;;;5.00;4.75;;;;;23.41;39.94;101945.50;5085855;28;45225;-83
2022/07/10 10:44:16;;;;;;;;;3.25;3.25;;;;;23.63;39.36;101979.50;5053661;28;45240;-84
2022/07/10 10:46:56;;;;;;;;;4.00;3.75;;;;;23.65;39.47;101972.38;5089555;27;45212;-82
2022/07/10 10:49:24;;;;;;;;;3.50;3.50;;;;;23.53;39.72;101937.44;5088685;28;45416;-82
2022/07/10 10:52:09;;;;;;;;;1.75;1.75;;;;;23.62;39.87;101948.16;5068428;28;45409;-83
2022/07/10 10:55:00;;;;;;;;;4.75;4.00;;;;;23.74;39.20;101965.19;5085793;28;45208;-82
2022/07/10 10:57:31;;;;;;;;;2.00;2.00;;;;;23.84;39.12;101964.28;5057452;28;47515;-83
2022/07/10 10:59:58;;;;;;;;;4.00;4.00;;;;;23.74;39.12;101931.19;5088681;28;45037;-82
2022/07/10 11:02:32;;;;;;;;;3.00;3.00;;;;;23.95;39.11;101951.78;5069522;28;45384;-84
2022/07/10 11:05:23;;;;;;;;;2.25;2.25;;;;;24.02;39.57;101942.78;5082477;28;45384;-84
2022/07/10 11:08:03;;;;;;;;;2.50;2.50;;;;;23.91;39.30;101904.34;5066857;28;47614;-84
2022/07/10 11:10:32;;;;;;;;;5.00;3.50;;;;;24.06;39.21;101936.53;5069884;28;45454;-82
2022/07/10 11:13:01;;;;;;;;;3.50;3.00;;;;;24.22;39.15;101944.53;5087520;28;45086;-82
2022/07/10 11:15:32;;;;;;;;;3.25;3.00;;;;;24.19;39.02;101926.66;5071640;28;45159;-82
2022/07/10 11:17:58;;;;;;;;;4.00;4.00;;;;;24.17;39.17;101913.22;5087318;28;45400;-83
2022/07/10 11:20:24;;;;;;;;;2.50;2.50;;;;;24.29;39.08;101924.84;5088534;28;45077;-83
2022/07/10 11:23:18;;;;;;;;;3.00;3.00;;;;;24.23;38.81;101903.34;5087560;28;44942;-83
2022/07/10 11:26:20;;;;;;;;;2.00;2.00;;;;;24.43;38.60;101921.25;5084654;28;45360;-82
2022/07/10 11:28:53;;;;;;;;;2.00;2.00;;;;;24.48;38.46;101923.88;5081888;28;45815;-82
2022/07/10 11:31:19;;;;;;;;;4.00;4.00;;;;;24.42;38.62;101911.34;5086332;28;45269;-82
2022/07/10 11:33:48;;;;;;;;;3.75;3.50;;;;;24.54;39.22;101921.19;5069790;28;45047;-83
2022/07/10 11:36:17;;;;;;;;;2.00;2.00;;;;;24.55;38.09;101912.22;5068887;28;45296;-84
2022/07/10 11:38:44;;;;;;;;;3.50;3.00;;;;;24.64;38.03;101911.28;5071993;28;47524;-82
2022/07/10 11:41:21;;;;;;;;;2.75;2.00;;;;;24.64;38.50;101892.47;5085621;28;45095;-82